Time;durP1;ratioP1;P1;durP2;ratioP2;P2;SDS_P1;SDS_P2;PMS_P1;PMS_P2;Temp;Humidity;BMP_temperature;BMP_pressure;BME280_temperature;BME280_humidity;BME280_pressure;Samples;Min_cycle;Max_cycle;Signal;HPM_P1;HPM_P2
2021/09/27 00:00:14;;;;;;;37.90;33.90;;;19.00;99.90;;;;;;6125642;23;20733;-74
2021/09/27 00:02:41;;;;;;;40.50;36.33;;;19.10;99.90;;;;;;6125934;23;20752;-74
2021/09/27 00:05:14;;;;;;;39.47;35.50;;;19.10;99.90;;;;;;6125293;23;20409;-73
2021/09/27 00:07:41;;;;;;;41.80;37.40;;;19.20;99.90;;;;;;6125773;23;20686;-74
2021/09/27 00:10:10;;;;;;;39.80;35.50;;;19.20;99.90;;;;;;6125616;23;20397;-74
2021/09/27 00:12:38;;;;;;;38.00;33.73;;;19.10;99.90;;;;;;6124559;23;20453;-74
2021/09/27 00:15:12;;;;;;;33.83;30.40;;;19.10;99.90;;;;;;6124508;23;20404;-74
2021/09/27 00:17:39;;;;;;;34.97;31.47;;;19.20;99.90;;;;;;6125269;23;20397;-74
2021/09/27 00:20:08;;;;;;;33.80;30.37;;;19.30;99.90;;;;;;6125423;23;20401;-73
2021/09/27 00:22:36;;;;;;;35.03;31.53;;;19.20;99.90;;;;;;6125200;23;20924;-73
2021/09/27 00:25:05;;;;;;;35.43;31.83;;;19.20;99.90;;;;;;6125335;23;20401;-74
2021/09/27 00:27:32;;;;;;;35.13;31.63;;;19.20;99.90;;;;;;6125460;23;20796;-73
2021/09/27 00:30:00;;;;;;;38.00;32.37;;;19.10;99.90;;;;;;6125664;23;20374;-73
2021/09/27 00:32:29;;;;;;;37.47;33.70;;;19.10;99.90;;;;;;6125167;23;20456;-73
2021/09/27 00:34:56;;;;;;;39.33;33.83;;;19.00;99.90;;;;;;6125982;23;20700;-73
2021/09/27 00:37:23;;;;;;;34.30;30.80;;;18.90;99.90;;;;;;6124909;23;20768;-73
2021/09/27 00:39:50;;;;;;;33.63;30.10;;;19.00;99.90;;;;;;6125824;23;20413;-74
2021/09/27 00:42:17;;;;;;;29.23;26.33;;;18.90;99.90;;;;;;6123825;23;20955;-73
2021/09/27 00:44:45;;;;;;;32.40;29.00;;;18.90;99.90;;;;;;6125018;23;20880;-73
2021/09/27 00:47:12;;;;;;;30.07;27.17;;;19.00;99.90;;;;;;6124739;23;20433;-73
2021/09/27 00:49:41;;;;;;;31.40;28.30;;;19.00;99.90;;;;;;6125072;23;20393;-73
2021/09/27 00:52:08;;;;;;;33.77;30.03;;;19.00;99.90;;;;;;6125320;23;20430;-74
2021/09/27 00:54:37;;;;;;;34.93;31.30;;;18.90;99.90;;;;;;6125545;23;20405;-74
2021/09/27 00:57:11;;;;;;;33.87;29.80;;;18.90;99.90;;;;;;6124917;23;20881;-73
2021/09/27 00:59:41;;;;;;;34.03;30.47;;;18.80;99.90;;;;;;6124919;23;20801;-73
2021/09/27 01:02:12;;;;;;;30.60;27.60;;;18.70;99.90;;;;;;6125427;23;20433;-73
2021/09/27 01:04:41;;;;;;;32.70;29.37;;;18.70;99.90;;;;;;6125618;23;20887;-75
2021/09/27 01:07:23;;;;;;;33.73;30.27;;;18.70;99.90;;;;;;6126458;23;20420;-74
2021/09/27 01:10:03;;;;;;;31.17;28.30;;;18.60;99.90;;;;;;6126677;23;20899;-73
2021/09/27 01:12:41;;;;;;;36.37;30.50;;;18.50;99.90;;;;;;6127960;23;20939;-73
2021/09/27 01:15:21;;;;;;;32.40;29.10;;;18.60;99.90;;;;;;6101972;23;20397;-73
2021/09/27 01:17:59;;;;;;;34.27;30.57;;;18.50;99.90;;;;;;6129051;23;20451;-74
2021/09/27 01:21:03;;;;;;;36.00;29.43;;;18.50;99.90;;;;;;6131872;23;20460;-73
2021/09/27 01:24:03;;;;;;;33.00;26.20;;;18.50;99.90;;;;;;6133015;23;20806;-73
2021/09/27 01:26:49;;;;;;;34.17;27.23;;;18.40;99.90;;;;;;6121748;23;20421;-73
2021/09/27 01:29:50;;;;;;;29.57;26.57;;;18.40;99.90;;;;;;6127445;23;20393;-73
2021/09/27 01:32:32;;;;;;;27.90;24.90;;;18.50;99.90;;;;;;6104402;23;20425;-72
2021/09/27 01:35:25;;;;;;;28.50;25.63;;;18.50;99.90;;;;;;6127112;23;20397;-74
2021/09/27 01:38:06;;;;;;;25.97;23.40;;;18.50;99.90;;;;;;6127148;23;20396;-73
2021/09/27 01:40:42;;;;;;;24.80;22.40;;;18.60;99.90;;;;;;6127458;23;20828;-73
2021/09/27 01:43:19;;;;;;;25.33;22.23;;;18.70;99.90;;;;;;6101448;23;20821;-73
2021/09/27 01:45:52;;;;;;;28.90;24.30;;;18.70;99.90;;;;;;6100666;23;20887;-74
2021/09/27 01:48:26;;;;;;;27.23;22.53;;;18.80;99.90;;;;;;6101282;23;20413;-73
2021/09/27 01:51:11;;;;;;;25.27;22.57;;;18.80;99.90;;;;;;6100898;23;20752;-73
2021/09/27 01:53:44;;;;;;;25.43;22.83;;;18.80;99.90;;;;;;6100997;23;20412;-73
2021/09/27 01:56:16;;;;;;;25.70;23.00;;;18.70;99.90;;;;;;6126082;23;20400;-73
2021/09/27 01:58:56;;;;;;;26.57;23.53;;;18.60;99.90;;;;;;6126646;23;20401;-74
2021/09/27 02:04:23;;;;;;;30.67;26.07;;;18.50;99.90;;;;;;6127189;23;20536;-73
2021/09/27 02:06:55;;;;;;;25.47;22.47;;;18.50;99.90;;;;;;6125581;23;20401;-73
2021/09/27 02:09:27;;;;;;;27.60;23.10;;;18.50;99.90;;;;;;6127260;23;20401;-73
2021/09/27 02:11:59;;;;;;;24.57;22.10;;;18.50;99.90;;;;;;6126867;23;20434;-73
2021/09/27 02:14:33;;;;;;;25.00;22.40;;;18.60;99.90;;;;;;6126593;23;20396;-73
2021/09/27 02:17:04;;;;;;;22.23;20.03;;;18.70;99.90;;;;;;6126226;23;20476;-73
2021/09/27 02:19:44;;;;;;;25.23;22.77;;;18.70;99.90;;;;;;6126407;23;21021;-72
2021/09/27 02:22:16;;;;;;;23.00;20.53;;;18.70;99.90;;;;;;6126444;23;20429;-72
2021/09/27 02:24:52;;;;;;;22.40;20.20;;;18.70;99.90;;;;;;6126708;23;20740;-75
2021/09/27 02:27:20;;;;;;;25.80;21.57;;;18.80;99.90;;;;;;6126866;23;20706;-74
2021/09/27 02:29:47;;;;;;;28.20;21.30;;;18.80;99.90;;;;;;6126447;23;20409;-74
2021/09/27 02:32:22;;;;;;;25.67;21.97;;;18.80;99.90;;;;;;6127080;23;20521;-74
2021/09/27 02:34:56;;;;;;;23.03;19.90;;;18.80;99.90;;;;;;6126260;23;20856;-74
2021/09/27 02:37:29;;;;;;;27.20;23.80;;;18.80;99.90;;;;;;6100975;23;20396;-73
2021/09/27 02:40:01;;;;;;;29.23;23.37;;;18.70;99.90;;;;;;6126711;23;20404;-74
2021/09/27 02:42:35;;;;;;;28.77;24.80;;;18.70;99.90;;;;;;6126938;23;20433;-74
2021/09/27 02:45:04;;;;;;;29.40;23.23;;;18.70;99.90;;;;;;6099737;23;20406;-74
2021/09/27 02:47:38;;;;;;;29.93;22.90;;;18.70;99.90;;;;;;6126368;23;20861;-74
2021/09/27 02:50:12;;;;;;;24.87;21.10;;;18.60;99.90;;;;;;6126407;23;20423;-74
2021/09/27 02:52:40;;;;;;;25.50;21.87;;;18.70;99.90;;;;;;6100267;23;20480;-74
2021/09/27 02:55:13;;;;;;;31.07;26.07;;;18.70;99.90;;;;;;6125589;23;20400;-75
2021/09/27 02:58:04;;;;;;;26.13;21.07;;;18.70;99.90;;;;;;6126136;23;20391;-74
2021/09/27 03:00:36;;;;;;;25.77;23.00;;;18.70;99.90;;;;;;6125993;23;20416;-73
2021/09/27 03:03:13;;;;;;;25.47;22.97;;;18.70;99.90;;;;;;6126386;23;20455;-74
2021/09/27 03:05:55;;;;;;;29.47;26.40;;;18.70;99.90;;;;;;6125404;23;20445;-74
2021/09/27 03:08:41;;;;;;;29.10;25.17;;;18.70;99.90;;;;;;6127014;23;20769;-74
2021/09/27 03:11:38;;;;;;;33.17;25.10;;;18.60;99.90;;;;;;6102180;23;20397;-74
2021/09/27 03:14:17;;;;;;;28.53;25.63;;;18.70;99.90;;;;;;6104078;23;20395;-74
2021/09/27 03:16:52;;;;;;;28.57;25.33;;;18.50;99.90;;;;;;6125008;23;20406;-74
2021/09/27 03:19:44;;;;;;;35.33;28.30;;;18.50;99.90;;;;;;6116896;23;20428;-74
2021/09/27 03:22:25;;;;;;;30.23;27.03;;;18.40;99.90;;;;;;6125463;23;20940;-74
2021/09/27 03:25:08;;;;;;;29.53;26.40;;;18.30;99.90;;;;;;6124519;23;20433;-74
2021/09/27 03:27:48;;;;;;;32.33;28.67;;;18.30;99.90;;;;;;6129075;23;20426;-73
2021/09/27 03:30:21;;;;;;;29.00;25.90;;;18.30;99.90;;;;;;6134322;23;20408;-74
2021/09/27 03:32:59;;;;;;;30.07;26.20;;;18.30;99.90;;;;;;6126812;23;20797;-74
2021/09/27 03:35:38;;;;;;;32.47;27.07;;;18.30;99.90;;;;;;6123356;23;20402;-74
2021/09/27 03:38:14;;;;;;;37.43;27.77;;;18.30;99.90;;;;;;6123939;23;20882;-74
2021/09/27 03:40:58;;;;;;;37.33;30.20;;;18.30;99.90;;;;;;6125264;23;20861;-74
2021/09/27 03:43:32;;;;;;;39.67;30.40;;;18.30;99.90;;;;;;6124441;23;20478;-73
2021/09/27 03:46:11;;;;;;;36.53;32.23;;;18.30;99.90;;;;;;6124026;23;20500;-73
2021/09/27 03:48:45;;;;;;;40.23;33.83;;;18.20;99.90;;;;;;6125502;23;20394;-73
2021/09/27 03:51:17;;;;;;;36.43;31.90;;;18.20;99.90;;;;;;6123885;23;20893;-73
2021/09/27 03:53:50;;;;;;;35.80;31.90;;;18.20;99.90;;;;;;6125949;23;20390;-74
2021/09/27 03:56:22;;;;;;;34.87;31.00;;;18.20;99.90;;;;;;6124995;23;20382;-74
2021/09/27 03:58:54;;;;;;;36.23;31.40;;;18.20;99.90;;;;;;6125572;23;20857;-74
2021/09/27 04:01:31;;;;;;;36.60;31.47;;;18.20;99.90;;;;;;6125781;23;20409;-73
2021/09/27 04:04:19;;;;;;;37.57;31.03;;;18.20;99.90;;;;;;6125802;23;20920;-73
2021/09/27 04:06:57;;;;;;;37.43;31.90;;;18.10;99.90;;;;;;6124707;23;20381;-73
2021/09/27 04:09:35;;;;;;;37.43;31.93;;;18.10;99.90;;;;;;6124357;23;20393;-74
2021/09/27 04:12:15;;;;;;;36.23;30.83;;;18.10;99.90;;;;;;6125140;23;20456;-74
2021/09/27 04:14:52;;;;;;;37.03;32.43;;;18.10;99.90;;;;;;6124287;23;20394;-74
2021/09/27 04:17:32;;;;;;;41.77;32.13;;;18.10;99.90;;;;;;6123454;23;20378;-74
2021/09/27 04:20:06;;;;;;;41.30;31.43;;;18.00;99.90;;;;;;6125376;23;20399;-74
2021/09/27 04:22:37;;;;;;;38.27;30.70;;;18.10;99.90;;;;;;6123858;23;20940;-74
2021/09/27 04:25:15;;;;;;;29.57;26.43;;;18.10;99.90;;;;;;6125339;23;20433;-75
2021/09/27 04:28:21;;;;;;;32.50;28.73;;;18.20;99.90;;;;;;6125293;23;20471;-74
2021/09/27 04:31:10;;;;;;;32.93;27.07;;;18.10;99.90;;;;;;6075800;23;20408;-74
2021/09/27 04:33:59;;;;;;;38.57;32.70;;;18.10;99.90;;;;;;6125218;23;20385;-73
2021/09/27 04:36:30;;;;;;;32.60;29.10;;;18.10;99.90;;;;;;6124800;23;20394;-74
2021/09/27 04:39:02;;;;;;;48.87;32.17;;;18.10;99.90;;;;;;6124151;23;20397;-73
2021/09/27 04:41:58;;;;;;;39.07;32.10;;;18.10;99.90;;;;;;6124909;23;20400;-73
2021/09/27 04:44:37;;;;;;;38.00;30.13;;;18.10;99.90;;;;;;6120498;23;20433;-72
2021/09/27 04:47:11;;;;;;;36.33;30.13;;;18.10;99.90;;;;;;6122007;23;20401;-72
2021/09/27 04:49:56;;;;;;;33.57;28.63;;;18.10;99.90;;;;;;6124603;23;20412;-72
2021/09/27 04:52:38;;;;;;;32.53;29.10;;;18.20;99.90;;;;;;6123826;23;20762;-71
2021/09/27 04:55:17;;;;;;;35.80;31.10;;;18.20;99.90;;;;;;6123803;23;20477;-72
2021/09/27 04:58:03;;;;;;;32.37;28.10;;;18.20;99.90;;;;;;6123373;23;20425;-71
2021/09/27 05:00:36;;;;;;;40.13;28.53;;;18.20;99.90;;;;;;6123788;23;20392;-70
2021/09/27 05:03:36;;;;;;;33.43;29.30;;;18.20;99.90;;;;;;6122712;23;20963;-70
2021/09/27 05:06:36;;;;;;;35.07;30.37;;;18.20;99.90;;;;;;6123698;23;20396;-70
2021/09/27 05:09:20;;;;;;;41.00;34.17;;;18.20;99.90;;;;;;6123507;23;20425;-71
2021/09/27 05:12:28;;;;;;;41.17;33.23;;;18.20;99.90;;;;;;6124912;23;20475;-71
2021/09/27 05:15:19;;;;;;;44.80;35.60;;;18.10;99.90;;;;;;6102698;23;20421;-70
2021/09/27 05:18:14;;;;;;;46.23;36.73;;;18.10;99.90;;;;;;6124231;23;20397;-71
2021/09/27 05:21:08;;;;;;;42.03;33.10;;;18.10;99.90;;;;;;6099217;23;20398;-71
2021/09/27 05:23:44;;;;;;;40.87;34.10;;;18.00;99.90;;;;;;6100597;23;20447;-70
2021/09/27 05:26:44;;;;;;;54.50;42.10;;;18.00;99.90;;;;;;6098592;23;20902;-71
2021/09/27 05:29:28;;;;;;;50.77;39.77;;;18.00;99.90;;;;;;6125745;23;20410;-69
2021/09/27 05:32:28;;;;;;;43.23;35.93;;;18.00;99.90;;;;;;6102724;23;20963;-71
2021/09/27 05:35:10;;;;;;;61.67;46.17;;;18.10;99.90;;;;;;6102533;23;20413;-72
2021/09/27 05:37:47;;;;;;;43.63;36.23;;;18.10;99.90;;;;;;6124938;23;20503;-71
2021/09/27 05:40:31;;;;;;;41.80;33.60;;;18.10;99.90;;;;;;6124488;23;20400;-72
2021/09/27 05:43:31;;;;;;;36.40;29.50;;;18.00;99.90;;;;;;6122814;23;20441;-70
2021/09/27 05:46:11;;;;;;;35.43;31.37;;;18.10;99.90;;;;;;6097516;23;20386;-71
2021/09/27 05:48:46;;;;;;;36.10;29.70;;;18.00;99.90;;;;;;6100538;23;20484;-72
2021/09/27 05:51:18;;;;;;;43.60;32.27;;;18.00;99.90;;;;;;6125153;23;20872;-74
2021/09/27 05:53:55;;;;;;;37.63;30.90;;;18.00;99.90;;;;;;6127151;23;20424;-73
2021/09/27 05:56:31;;;;;;;43.43;33.37;;;18.00;99.90;;;;;;6125540;23;20782;-72
2021/09/27 05:59:04;;;;;;;41.67;33.30;;;18.00;99.90;;;;;;6126720;23;20397;-72
2021/09/27 06:01:43;;;;;;;41.20;32.60;;;18.10;99.90;;;;;;6126022;23;20452;-71
2021/09/27 06:04:25;;;;;;;34.43;29.83;;;18.10;99.90;;;;;;6126334;23;20426;-72
2021/09/27 06:07:00;;;;;;;37.90;29.20;;;18.20;99.90;;;;;;6125718;23;20756;-72
2021/09/27 06:09:52;;;;;;;42.47;30.20;;;18.30;99.90;;;;;;6100581;23;20404;-71
2021/09/27 06:12:26;;;;;;;40.40;30.40;;;18.40;99.90;;;;;;6125372;23;20457;-76
2021/09/27 06:14:58;;;;;;;41.10;32.50;;;18.40;99.90;;;;;;6099900;23;20515;-72
2021/09/27 06:17:39;;;;;;;39.07;30.63;;;18.50;99.90;;;;;;6126049;23;20441;-74
2021/09/27 06:20:13;;;;;;;41.17;32.20;;;18.40;99.90;;;;;;6125900;23;20400;-73
2021/09/27 06:23:00;;;;;;;41.93;32.70;;;18.40;99.90;;;;;;6099701;23;20429;-71
2021/09/27 06:25:34;;;;;;;36.57;28.17;;;18.50;99.90;;;;;;6125920;23;20810;-77
2021/09/27 06:28:13;;;;;;;32.77;28.37;;;18.50;99.90;;;;;;6100419;23;20747;-72
2021/09/27 06:30:45;;;;;;;37.23;29.37;;;18.60;99.90;;;;;;6100034;23;20710;-75
2021/09/27 06:33:21;;;;;;;34.60;29.83;;;18.70;99.90;;;;;;6125876;23;20429;-75
2021/09/27 06:35:53;;;;;;;33.90;27.20;;;18.80;99.90;;;;;;6125041;23;20389;-76
2021/09/27 06:38:29;;;;;;;30.27;27.00;;;18.90;99.90;;;;;;6125721;23;20460;-74
2021/09/27 06:40:58;;;;;;;35.87;28.77;;;19.00;99.90;;;;;;6125328;23;20731;-74
2021/09/27 06:43:27;;;;;;;38.47;28.97;;;19.30;99.90;;;;;;6125431;23;20472;-75
2021/09/27 06:45:55;;;;;;;28.63;25.53;;;19.60;99.90;;;;;;6125184;23;20438;-76
2021/09/27 06:48:24;;;;;;;31.53;26.70;;;19.80;99.90;;;;;;6126294;23;20393;-73
2021/09/27 06:50:54;;;;;;;31.27;27.87;;;19.90;99.90;;;;;;6126156;23;20390;-75
2021/09/27 06:53:24;;;;;;;29.17;24.20;;;20.00;99.90;;;;;;6125585;23;20435;-74
2021/09/27 06:55:52;;;;;;;33.77;26.03;;;20.30;99.90;;;;;;6125850;23;20423;-73
2021/09/27 06:58:21;;;;;;;25.63;22.90;;;20.60;99.90;;;;;;6125793;23;20400;-75
2021/09/27 07:00:48;;;;;;;26.00;21.70;;;21.00;99.90;;;;;;6125176;23;20401;-74
2021/09/27 07:03:15;;;;;;;29.90;25.40;;;21.20;99.90;;;;;;6126143;23;20433;-74
2021/09/27 07:05:42;;;;;;;31.57;25.43;;;21.20;99.90;;;;;;6122980;23;20460;-75
2021/09/27 07:08:11;;;;;;;29.60;24.87;;;21.10;99.90;;;;;;6123741;23;20484;-74
2021/09/27 07:10:38;;;;;;;30.77;26.70;;;21.10;99.90;;;;;;6124299;23;20401;-73
2021/09/27 07:13:07;;;;;;;27.20;23.87;;;21.20;99.90;;;;;;6125223;23;20452;-74
2021/09/27 07:15:34;;;;;;;28.87;25.73;;;21.20;99.90;;;;;;6124538;23;20393;-73
2021/09/27 07:18:02;;;;;;;28.30;24.93;;;21.10;99.90;;;;;;6125278;23;20421;-73
2021/09/27 07:20:29;;;;;;;23.47;20.97;;;21.70;99.90;;;;;;6125964;23;20758;-73
2021/09/27 07:22:58;;;;;;;24.10;21.10;;;22.40;99.90;;;;;;6125516;23;20761;-75
2021/09/27 07:25:30;;;;;;;25.93;23.13;;;23.50;99.90;;;;;;6125364;23;20434;-75
2021/09/27 07:27:58;;;;;;;24.33;20.23;;;24.40;99.90;;;;;;6125464;23;20393;-73
2021/09/27 07:30:26;;;;;;;24.80;22.33;;;25.30;99.90;;;;;;6125885;23;20429;-74
2021/09/27 07:32:54;;;;;;;23.33;20.10;;;26.10;99.90;;;;;;6126782;23;20929;-75
2021/09/27 07:35:29;;;;;;;23.73;21.33;;;27.00;99.90;;;;;;6135098;23;20461;-73
2021/09/27 07:37:56;;;;;;;22.60;20.23;;;26.90;99.90;;;;;;6132243;23;20432;-74
2021/09/27 07:40:35;;;;;;;25.10;21.40;;;27.30;99.90;;;;;;6126100;23;20414;-75
2021/09/27 07:43:03;;;;;;;23.60;21.07;;;27.70;99.40;;;;;;6126230;23;20542;-74
2021/09/27 07:45:34;;;;;;;20.60;18.40;;;28.00;98.80;;;;;;6124896;23;20512;-75
2021/09/27 07:48:01;;;;;;;22.27;19.03;;;28.10;98.50;;;;;;6125763;23;20778;-75
2021/09/27 07:50:29;;;;;;;21.93;19.77;;;28.20;97.90;;;;;;6125639;23;20397;-75
2021/09/27 07:52:56;;;;;;;22.03;19.73;;;28.10;97.70;;;;;;6125423;23;20736;-74
2021/09/27 07:55:23;;;;;;;26.27;19.23;;;28.60;97.30;;;;;;6124601;23;20390;-73
2021/09/27 07:57:52;;;;;;;24.53;18.60;;;28.70;97.00;;;;;;6125412;23;20398;-74
2021/09/27 08:00:20;;;;;;;20.97;18.87;;;28.70;95.90;;;;;;6124813;23;20560;-73
2021/09/27 08:02:47;;;;;;;22.57;20.20;;;28.80;96.50;;;;;;6125379;23;20528;-74
2021/09/27 08:05:17;;;;;;;19.83;17.60;;;28.50;95.40;;;;;;6124404;23;20433;-75
2021/09/27 08:07:44;;;;;;;18.60;16.70;;;28.40;96.60;;;;;;6125455;23;20398;-74
2021/09/27 08:10:12;;;;;;;20.10;18.00;;;28.40;95.30;;;;;;6125326;23;20398;-75
2021/09/27 08:12:40;;;;;;;22.30;19.30;;;28.10;95.80;;;;;;6124175;23;20476;-74
2021/09/27 08:15:12;;;;;;;21.27;17.30;;;27.90;96.30;;;;;;6124079;23;20386;-76
2021/09/27 08:17:40;;;;;;;21.30;19.00;;;28.00;96.50;;;;;;6125951;23;20406;-73
2021/09/27 08:20:10;;;;;;;25.50;19.97;;;27.60;96.60;;;;;;6125567;23;20801;-74
2021/09/27 08:22:38;;;;;;;20.13;18.10;;;27.60;96.70;;;;;;6125219;23;20431;-74
2021/09/27 08:25:06;;;;;;;19.23;16.50;;;27.90;96.30;;;;;;6124500;23;20425;-74
2021/09/27 08:27:33;;;;;;;20.77;18.20;;;27.70;96.80;;;;;;6125837;23;20409;-75
2021/09/27 08:30:01;;;;;;;24.70;17.37;;;27.90;96.50;;;;;;6125142;23;20764;-74
2021/09/27 08:32:29;;;;;;;25.33;17.47;;;28.10;96.10;;;;;;6124779;23;20433;-74
2021/09/27 08:34:56;;;;;;;22.63;17.40;;;28.50;95.90;;;;;;6123886;23;20397;-75
2021/09/27 08:37:24;;;;;;;20.87;18.87;;;28.50;95.10;;;;;;6124295;23;20394;-75
2021/09/27 08:39:51;;;;;;;23.23;17.57;;;28.20;95.80;;;;;;6125029;23;20852;-75
2021/09/27 08:42:23;;;;;;;20.90;18.43;;;28.50;95.50;;;;;;6124797;23;20468;-75
2021/09/27 08:44:53;;;;;;;17.43;15.73;;;28.60;94.90;;;;;;6125240;23;20469;-75
2021/09/27 08:47:31;;;;;;;17.17;15.30;;;28.40;95.30;;;;;;6124593;23;20468;-76
2021/09/27 08:50:04;;;;;;;19.00;15.40;;;28.60;94.60;;;;;;6125486;23;20393;-76
2021/09/27 08:52:35;;;;;;;17.20;15.43;;;28.70;94.10;;;;;;6098837;23;20445;-75
2021/09/27 08:55:09;;;;;;;17.67;14.47;;;28.90;94.10;;;;;;6125215;23;20425;-75
2021/09/27 08:57:45;;;;;;;22.37;17.07;;;29.40;93.20;;;;;;6124932;23;20421;-76
2021/09/27 09:00:26;;;;;;;19.70;14.83;;;28.70;93.60;;;;;;6124812;23;20400;-76
2021/09/27 09:03:01;;;;;;;19.57;16.93;;;28.10;94.70;;;;;;6099066;23;20465;-76
2021/09/27 09:05:35;;;;;;;22.67;17.80;;;27.50;96.10;;;;;;6098255;23;20943;-76
2021/09/27 09:08:08;;;;;;;17.97;16.10;;;26.80;97.70;;;;;;6125274;23;20472;-77
2021/09/27 09:10:48;;;;;;;17.27;14.27;;;27.10;98.60;;;;;;6124826;23;20396;-74
2021/09/27 09:13:21;;;;;;;19.27;14.77;;;27.70;97.20;;;;;;6124687;23;20434;-74
2021/09/27 09:15:55;;;;;;;15.43;13.43;;;28.20;95.30;;;;;;6124273;23;20398;-75
2021/09/27 09:18:31;;;;;;;15.03;12.83;;;29.10;94.40;;;;;;6124921;23;20428;-75
2021/09/27 09:21:00;;;;;;;15.90;13.37;;;29.60;92.80;;;;;;6124598;23;20397;-75
2021/09/27 09:23:34;;;;;;;16.80;12.73;;;30.00;92.00;;;;;;6124558;23;20437;-75
2021/09/27 09:26:03;;;;;;;12.93;11.73;;;30.40;91.20;;;;;;6124480;23;20429;-75
2021/09/27 09:28:30;;;;;;;13.10;11.73;;;30.50;91.00;;;;;;6127169;23;20412;-74
2021/09/27 09:31:06;;;;;;;15.10;13.57;;;30.30;90.30;;;;;;6126514;23;20394;-75
2021/09/27 09:33:45;;;;;;;12.83;11.43;;;30.00;90.20;;;;;;6100043;23;20441;-75
2021/09/27 09:36:15;;;;;;;11.60;10.40;;;29.80;91.20;;;;;;6126629;23;20417;-75
2021/09/27 09:38:44;;;;;;;12.70;11.33;;;29.80;90.80;;;;;;6136731;23;20398;-76
2021/09/27 09:41:12;;;;;;;14.40;11.87;;;29.80;90.30;;;;;;6144865;23;20708;-73
2021/09/27 09:43:43;;;;;;;13.83;12.27;;;30.10;90.20;;;;;;6128159;23;20698;-75
2021/09/27 09:46:12;;;;;;;11.67;10.67;;;30.10;90.30;;;;;;6126335;23;20429;-75
2021/09/27 09:49:00;;;;;;;13.50;12.30;;;30.30;90.10;;;;;;6125588;23;20857;-75
2021/09/27 09:51:34;;;;;;;15.63;12.43;;;29.70;90.30;;;;;;6126556;23;20417;-74
2021/09/27 09:54:15;;;;;;;13.90;12.33;;;30.20;90.80;;;;;;6125947;23;20440;-75
2021/09/27 09:56:46;;;;;;;13.73;11.90;;;29.90;90.60;;;;;;6100247;23;20841;-75
2021/09/27 09:59:26;;;;;;;14.40;12.90;;;29.70;90.90;;;;;;6126267;23;20596;-76
2021/09/27 10:01:55;;;;;;;14.57;13.00;;;28.50;91.90;;;;;;6125028;23;20433;-75
2021/09/27 10:04:29;;;;;;;13.90;12.03;;;28.20;93.50;;;;;;6126242;23;20869;-75
2021/09/27 10:07:01;;;;;;;14.70;13.20;;;28.40;93.20;;;;;;6125825;23;20429;-75
2021/09/27 10:09:32;;;;;;;14.73;13.33;;;27.80;94.20;;;;;;6126254;23;20854;-74
2021/09/27 10:12:02;;;;;;;14.57;13.13;;;27.30;94.80;;;;;;6125635;23;20505;-75
2021/09/27 10:14:40;;;;;;;20.77;14.83;;;27.10;95.80;;;;;;6125303;23;20393;-75
2021/09/27 10:17:19;;;;;;;16.77;13.60;;;26.60;96.90;;;;;;6124757;23;20406;-74
2021/09/27 10:19:57;;;;;;;16.00;12.37;;;26.50;97.30;;;;;;6125174;23;20896;-75
2021/09/27 10:22:27;;;;;;;13.57;12.27;;;26.20;96.90;;;;;;6125766;23;20439;-74
2021/09/27 10:24:57;;;;;;;19.33;12.10;;;26.10;96.60;;;;;;6126180;23;20402;-75
2021/09/27 10:27:31;;;;;;;14.70;12.40;;;25.90;98.00;;;;;;6125526;23;20398;-74
2021/09/27 10:30:03;;;;;;;13.70;12.20;;;25.50;98.60;;;;;;6100005;23;20495;-75
2021/09/27 10:32:38;;;;;;;17.93;13.30;;;25.20;99.80;;;;;;6125523;23;20944;-75
2021/09/27 10:35:19;;;;;;;14.10;11.63;;;24.90;99.90;;;;;;6125711;23;20480;-74
2021/09/27 10:37:47;;;;;;;14.40;11.77;;;24.70;99.90;;;;;;6100373;23;20421;-74
2021/09/27 10:40:19;;;;;;;13.87;12.43;;;24.30;99.90;;;;;;6125730;23;20402;-75
2021/09/27 10:42:49;;;;;;;11.83;10.63;;;24.00;99.90;;;;;;6125876;23;20805;-75
2021/09/27 10:45:21;;;;;;;18.00;12.03;;;23.90;99.90;;;;;;6125298;23;20437;-75
2021/09/27 10:47:52;;;;;;;15.37;11.73;;;24.10;99.90;;;;;;6125818;23;20964;-75
2021/09/27 10:50:25;;;;;;;16.03;12.20;;;23.60;99.90;;;;;;6125966;23;20424;-75
2021/09/27 10:53:06;;;;;;;12.77;11.47;;;23.40;99.90;;;;;;6125644;23;20430;-74
2021/09/27 10:55:51;;;;;;;13.73;10.93;;;23.20;99.90;;;;;;6125029;23;20421;-74
2021/09/27 10:58:36;;;;;;;14.03;10.23;;;23.10;99.90;;;;;;6125431;23;20986;-75
2021/09/27 11:01:06;;;;;;;14.43;11.93;;;23.30;99.90;;;;;;6125577;23;21209;-74
2021/09/27 11:03:38;;;;;;;14.63;11.63;;;23.30;99.90;;;;;;6125491;23;20440;-74
2021/09/27 11:06:27;;;;;;;13.50;11.10;;;23.60;99.90;;;;;;6124607;23;20440;-75
2021/09/27 11:09:00;;;;;;;12.67;11.37;;;23.60;99.90;;;;;;6125833;23;20465;-76
2021/09/27 11:11:40;;;;;;;15.60;11.43;;;23.90;99.90;;;;;;6099274;23;20417;-75
2021/09/27 11:14:26;;;;;;;11.67;9.90;;;23.40;99.90;;;;;;6125177;23;20394;-73
2021/09/27 11:17:26;;;;;;;12.80;11.30;;;24.10;99.90;;;;;;6124139;23;20663;-75
2021/09/27 11:20:40;;;;;;;11.17;10.07;;;24.30;99.90;;;;;;6102360;23;20521;-75
2021/09/27 11:23:25;;;;;;;10.87;9.80;;;24.70;99.90;;;;;;6098393;23;20433;-75
2021/09/27 11:26:28;;;;;;;12.00;9.70;;;24.60;99.90;;;;;;6124055;23;20759;-75
2021/09/27 11:29:21;;;;;;;10.17;9.27;;;24.90;99.90;;;;;;6125091;23;20727;-74
2021/09/27 11:32:09;;;;;;;11.20;9.80;;;25.00;99.90;;;;;;6124614;23;20798;-75
2021/09/27 11:34:53;;;;;;;9.70;8.80;;;24.70;99.90;;;;;;6124946;23;20472;-75
2021/09/27 11:37:24;;;;;;;9.20;8.30;;;24.80;99.90;;;;;;6123877;23;20395;-75
2021/09/27 11:39:55;;;;;;;9.57;7.87;;;24.80;99.90;;;;;;6125149;23;20398;-74
2021/09/27 11:42:34;;;;;;;10.30;7.80;;;24.60;99.90;;;;;;6125022;23;20443;-75
2021/09/27 11:45:41;;;;;;;8.77;7.87;;;24.50;99.90;;;;;;6124137;23;20403;-75
2021/09/27 11:48:12;;;;;;;9.13;8.23;;;24.40;99.90;;;;;;6095536;23;20417;-74
2021/09/27 11:51:19;;;;;;;8.67;7.13;;;24.20;99.90;;;;;;6124444;23;20713;-75
2021/09/27 11:54:17;;;;;;;9.50;8.60;;;24.30;99.90;;;;;;6116458;23;20413;-75
2021/09/27 11:56:52;;;;;;;8.10;7.30;;;23.80;99.90;;;;;;6134601;23;20392;-74
2021/09/27 11:59:29;;;;;;;11.27;8.70;;;23.80;99.90;;;;;;6135218;23;20461;-75
2021/09/27 12:08:04;;;;;;;10.40;9.20;;;23.20;99.90;;;;;;6106894;23;20411;-75
2021/09/27 12:10:40;;;;;;;13.93;9.40;;;23.00;99.90;;;;;;6124850;23;20416;-74
2021/09/27 12:13:13;;;;;;;9.80;8.90;;;23.00;99.90;;;;;;6125144;23;20429;-75
2021/09/27 12:15:45;;;;;;;10.40;9.27;;;23.20;99.90;;;;;;6124379;23;20468;-75
2021/09/27 12:18:41;;;;;;;10.43;9.33;;;23.30;99.90;;;;;;6124047;23;20864;-74
2021/09/27 12:21:20;;;;;;;9.57;8.63;;;23.30;99.90;;;;;;6125414;23;20405;-75
2021/09/27 12:23:51;;;;;;;19.70;9.57;;;23.50;99.90;;;;;;6124582;23;20401;-75
2021/09/27 12:26:23;;;;;;;9.07;8.13;;;23.70;99.90;;;;;;6126088;23;20472;-75
2021/09/27 12:29:01;;;;;;;11.07;9.33;;;24.10;99.90;;;;;;6124898;23;20378;-74
2021/09/27 12:31:29;;;;;;;10.47;9.40;;;24.40;99.90;;;;;;6124974;23;20388;-74
2021/09/27 12:33:56;;;;;;;9.00;7.80;;;24.50;99.90;;;;;;6125105;23;20452;-74
2021/09/27 12:36:24;;;;;;;10.80;8.93;;;24.60;99.90;;;;;;6125014;23;20401;-75
2021/09/27 12:38:55;;;;;;;8.47;7.57;;;24.80;99.90;;;;;;6124752;23;20460;-75
2021/09/27 12:41:26;;;;;;;11.27;9.47;;;24.70;99.60;;;;;;6124705;23;20389;-74
2021/09/27 12:44:05;;;;;;;9.03;8.23;;;24.20;99.90;;;;;;6125073;23;20388;-76
2021/09/27 12:46:33;;;;;;;10.87;9.17;;;24.00;99.90;;;;;;6098832;23;20441;-75
2021/09/27 12:49:02;;;;;;;10.87;9.73;;;23.80;99.90;;;;;;6124915;23;20908;-75
2021/09/27 12:51:34;;;;;;;10.20;8.20;;;23.60;99.90;;;;;;6124619;23;20485;-75
2021/09/27 12:54:06;;;;;;;13.97;9.10;;;23.70;99.90;;;;;;6125361;23;20412;-74
2021/09/27 12:56:34;;;;;;;9.10;8.23;;;23.90;99.90;;;;;;6124499;23;20397;-75
2021/09/27 12:59:05;;;;;;;12.67;8.27;;;23.90;99.90;;;;;;6125108;23;20402;-74
2021/09/27 13:01:34;;;;;;;10.90;9.80;;;23.70;99.90;;;;;;6126529;23;20433;-75
2021/09/27 13:04:05;;;;;;;14.30;8.60;;;23.60;99.90;;;;;;6127240;23;20883;-73
2021/09/27 13:06:34;;;;;;;10.13;9.23;;;23.60;99.90;;;;;;6125884;23;20465;-75
2021/09/27 13:09:12;;;;;;;12.63;10.00;;;23.70;99.90;;;;;;6126812;23;20415;-74
2021/09/27 13:11:43;;;;;;;10.90;9.80;;;23.80;99.90;;;;;;6126948;23;20459;-75
2021/09/27 13:14:18;;;;;;;11.37;8.63;;;23.90;99.90;;;;;;6127378;23;20504;-74
2021/09/27 13:16:47;;;;;;;12.10;8.67;;;24.00;99.90;;;;;;6126369;23;20401;-76
2021/09/27 13:19:39;;;;;;;11.43;9.37;;;23.90;99.90;;;;;;6127004;23;20421;-75